Portada
METAR-TAF:

METAR-TAF

Aeroports :

Selebi-Phikwe, Botswana

latitud: 22-03-19S, longitud: 027-49-13E, altitud: 892 m

Observació

L'informe es va fer fa 9 hores i 10 minuts, a les 18:00 UTC
Vent 6 kt del Est/Sud-Est
Temperatura 26°C
Humitat 39%
Pressió 1023 hPa
Visibilitat 10 km o més
sense núvols per sota de 1500 mi sense presència de cumulonimbus.

METAR: FBSP 191800Z 11006KT CAVOK 26/11 Q1023

Hora: 05:10 (03:10 UTC)

Pronòstic

L'informe es va fer fa 15 hores i 10 minuts, a les 12:00 UTC
Pronòstic vàlid del 19 a les 15 UTC al 19 a les 24 UTC
Vent 14 kt del Est/Nord-Est
Visibilitat 10 km o més
sense núvols per sota de 1500 mi sense presència de cumulonimbus.

TAF: FBSP 191200Z 1915/1924 07014KT CAVOK

Observacions i pronòstics meteorològics de més de 4000 aeroports (METAR i TAF).

Les estacions disponibles són els punts grocs i vermells al mapa.

Posi el ratolí al punt desitjat per veure el nom de l'estació.

Feu clic per veure les observacions i els pronòstics meteorològics.

Per canviar el mapa: feu clic els botons verds amb una creu de color negre per apropar; al botó verd amb un guió per allunyar la imatge; o en les fletxes verdes per a mapes adjacents.


METAR-TAF: